createdAt,value
2023-04-19T00:00:22.362Z,98134.34
2023-04-19T00:01:25.549Z,98133.16
2023-04-19T00:02:29.395Z,98133.75
2023-04-19T00:03:32.792Z,98129.78
2023-04-19T00:04:38.472Z,98126.66
2023-04-19T00:05:41.938Z,98130.66
2023-04-19T00:06:44.858Z,98124.28
2023-04-19T00:07:47.994Z,98125.81
2023-04-19T00:08:50.863Z,98126.31
2023-04-19T00:09:54.024Z,98119.91
2023-04-19T00:10:56.873Z,98117.87
2023-04-19T00:12:04.713Z,98121.47
2023-04-19T00:13:07.619Z,98117.00
2023-04-19T00:14:10.768Z,98110.00
2023-04-19T00:15:13.697Z,98117.09
2023-04-19T00:16:17.510Z,98118.44
2023-04-19T00:17:21.498Z,98114.75
2023-04-19T00:18:24.885Z,98114.56
2023-04-19T00:19:27.841Z,98114.66
2023-04-19T00:20:30.699Z,98108.16
2023-04-19T00:21:33.907Z,98107.56
2023-04-19T00:22:36.957Z,98112.81
2023-04-19T00:23:39.808Z,98109.13
2023-04-19T00:24:42.735Z,98106.59
2023-04-19T00:25:49.679Z,98110.66
2023-04-19T00:26:52.765Z,98110.69
2023-04-19T00:27:55.965Z,98109.00
2023-04-19T00:28:59.101Z,98106.97
2023-04-19T00:30:02.446Z,98110.31
2023-04-19T00:31:05.810Z,98104.84
2023-04-19T00:32:09.049Z,98103.63
2023-04-19T00:33:13.362Z,98104.59
2023-04-19T00:34:16.679Z,98097.13
2023-04-19T00:35:20.064Z,98098.56
2023-04-19T00:36:23.121Z,98095.28
2023-04-19T00:37:26.019Z,98094.72
2023-04-19T00:38:28.906Z,98098.78
2023-04-19T00:39:31.970Z,98103.63
2023-04-19T00:40:35.101Z,98095.66
2023-04-19T00:41:37.823Z,98097.38
2023-04-19T00:42:40.919Z,98101.78
2023-04-19T00:43:43.858Z,98091.28
2023-04-19T00:44:46.639Z,98096.03
2023-04-19T00:45:50.119Z,98099.25
2023-04-19T00:46:54.179Z,98095.25
2023-04-19T00:47:57.071Z,98089.25
2023-04-19T00:49:00.386Z,98090.00
2023-04-19T00:50:07.302Z,98091.94
2023-04-19T00:51:10.949Z,98088.91
2023-04-19T00:52:14.369Z,98091.84
2023-04-19T00:53:17.249Z,98085.12
2023-04-19T00:54:20.682Z,98082.31
2023-04-19T00:55:24.777Z,98091.53
2023-04-19T00:56:27.890Z,98088.03
2023-04-19T00:57:31.162Z,98090.06
2023-04-19T00:58:34.189Z,98087.94
2023-04-19T00:59:38.016Z,98083.22
2023-04-19T01:00:41.120Z,98085.22
2023-04-19T01:01:44.218Z,98086.69
2023-04-19T01:02:48.263Z,98088.09
2023-04-19T01:03:51.516Z,98077.56
2023-04-19T01:04:54.633Z,98081.81
2023-04-19T01:05:57.695Z,98081.28
2023-04-19T01:07:01.756Z,98078.66
2023-04-19T01:08:04.959Z,98089.75
2023-04-19T01:09:07.830Z,98080.56
2023-04-19T01:10:10.978Z,98076.03
2023-04-19T01:11:13.948Z,98077.16
2023-04-19T01:12:16.933Z,98070.66
2023-04-19T01:13:19.974Z,98070.34
2023-04-19T01:14:22.912Z,98072.66
2023-04-19T01:15:26.447Z,98070.03
2023-04-19T01:16:30.055Z,98062.12
2023-04-19T01:17:33.504Z,98073.16
2023-04-19T01:18:38.219Z,98069.16
2023-04-19T01:19:41.370Z,98071.13
2023-04-19T01:20:44.511Z,98062.06
2023-04-19T01:21:47.389Z,98063.88
2023-04-19T01:22:50.572Z,98063.94
2023-04-19T01:23:53.568Z,98063.59
2023-04-19T01:24:57.482Z,98064.16
2023-04-19T01:26:02.068Z,98067.75
2023-04-19T01:27:04.937Z,98066.72
2023-04-19T01:28:07.779Z,98062.25
2023-04-19T01:29:10.562Z,98058.50
2023-04-19T01:30:13.812Z,98062.97
2023-04-19T01:31:16.802Z,98058.00
2023-04-19T01:32:19.723Z,98053.47
2023-04-19T01:33:22.702Z,98047.75
2023-04-19T01:34:25.500Z,98049.19
2023-04-19T01:35:28.325Z,98050.47
2023-04-19T01:36:31.324Z,98052.06
2023-04-19T01:37:37.697Z,98049.13
2023-04-19T01:38:40.819Z,98046.88
2023-04-19T01:39:44.233Z,98047.09
2023-04-19T01:40:47.299Z,98042.94
2023-04-19T01:41:50.144Z,98043.75
2023-04-19T01:42:53.834Z,98047.41
2023-04-19T01:43:56.582Z,98044.88
2023-04-19T01:44:59.618Z,98051.47
2023-04-19T01:46:02.478Z,98050.47
2023-04-19T01:47:06.109Z,98040.38
2023-04-19T01:48:09.185Z,98043.06
2023-04-19T01:49:12.092Z,98046.12
2023-04-19T01:50:15.085Z,98040.78
2023-04-19T01:51:18.420Z,98038.28
2023-04-19T01:52:21.384Z,98043.28
2023-04-19T01:53:24.339Z,98040.78
2023-04-19T01:54:27.290Z,98041.78
2023-04-19T01:55:30.429Z,98041.66
2023-04-19T01:56:33.434Z,98041.84
2023-04-19T01:57:36.259Z,98036.63
2023-04-19T01:58:39.126Z,98046.88
2023-04-19T01:59:42.018Z,98035.22
2023-04-19T02:00:44.912Z,98035.88
2023-04-19T02:01:48.298Z,98038.56
2023-04-19T02:02:51.460Z,98035.75
2023-04-19T02:03:54.645Z,98032.69
2023-04-19T02:04:58.115Z,98035.06
2023-04-19T02:06:01.046Z,98037.88
2023-04-19T02:07:04.107Z,98026.91
2023-04-19T02:08:06.999Z,98026.34
2023-04-19T02:09:10.199Z,98032.13
2023-04-19T02:10:13.376Z,98029.81
2023-04-19T02:11:16.259Z,98028.56
2023-04-19T02:12:19.619Z,98028.34
2023-04-19T02:13:22.696Z,98034.34
2023-04-19T02:14:25.720Z,98026.22
2023-04-19T02:15:28.626Z,98021.41
2023-04-19T02:16:33.815Z,98031.22
2023-04-19T02:17:39.186Z,98029.25
2023-04-19T02:18:42.228Z,98027.28
2023-04-19T02:19:45.140Z,98033.56
2023-04-19T02:20:48.459Z,98021.28
2023-04-19T02:21:52.078Z,98026.22
2023-04-19T02:22:54.950Z,98027.34
2023-04-19T02:23:58.368Z,98025.34
2023-04-19T02:25:01.347Z,98025.34
2023-04-19T02:26:04.622Z,98030.09
2023-04-19T02:27:07.444Z,98021.19
2023-04-19T02:28:10.903Z,98017.75
2023-04-19T02:29:14.107Z,98014.34
2023-04-19T02:30:16.971Z,98022.69
2023-04-19T02:31:19.831Z,98018.59
2023-04-19T02:32:22.851Z,98014.13
2023-04-19T02:33:29.852Z,98018.38
2023-04-19T02:34:36.210Z,98009.06
2023-04-19T02:35:39.214Z,98013.09
2023-04-19T02:36:42.086Z,98014.22
2023-04-19T02:37:45.729Z,98008.22
2023-04-19T02:38:49.029Z,98011.25
2023-04-19T02:39:51.877Z,98007.66
2023-04-19T02:40:55.191Z,98010.84
2023-04-19T02:41:58.239Z,98003.47
2023-04-19T02:43:01.137Z,97999.25
2023-04-19T02:44:04.277Z,98003.97
2023-04-19T02:45:07.920Z,98003.91
2023-04-19T02:46:10.883Z,97998.19
2023-04-19T02:47:14.020Z,98002.69
2023-04-19T02:48:17.218Z,97997.97
2023-04-19T02:49:21.359Z,97995.38
2023-04-19T02:50:24.440Z,98001.66
2023-04-19T02:51:27.387Z,97992.03
2023-04-19T02:52:30.429Z,98001.38
2023-04-19T02:53:33.862Z,97995.16
2023-04-19T02:54:36.859Z,97994.59
2023-04-19T02:55:39.581Z,97991.78
2023-04-19T02:56:42.430Z,97990.38
2023-04-19T02:57:45.490Z,97990.06
2023-04-19T02:58:48.709Z,97987.97
2023-04-19T02:59:51.601Z,97989.28
2023-04-19T03:00:54.575Z,97990.94
2023-04-19T03:01:57.545Z,97987.72
2023-04-19T03:03:01.142Z,97988.03
2023-04-19T03:04:04.428Z,97982.75
2023-04-19T03:05:07.569Z,97982.41
2023-04-19T03:06:10.871Z,97979.47
2023-04-19T03:07:14.019Z,97980.34
2023-04-19T03:08:17.235Z,97982.66
2023-04-19T03:09:20.147Z,97979.06
2023-04-19T03:10:23.897Z,97980.50
2023-04-19T03:11:26.740Z,97979.47
2023-04-19T03:12:29.609Z,97977.03
2023-04-19T03:13:32.383Z,97978.41
2023-04-19T03:14:35.568Z,97971.38
2023-04-19T03:15:38.419Z,97969.25
2023-04-19T03:16:41.925Z,97974.69
2023-04-19T03:17:45.078Z,97966.09
2023-04-19T03:18:49.457Z,97968.75
2023-04-19T03:19:53.094Z,97968.09
2023-04-19T03:20:56.078Z,97973.59
2023-04-19T03:21:59.437Z,97972.03
2023-04-19T03:23:02.656Z,97972.16
2023-04-19T03:24:05.677Z,97970.66
2023-04-19T03:25:09.189Z,97969.09
2023-04-19T03:26:12.218Z,97959.97
2023-04-19T03:27:15.226Z,97962.16
2023-04-19T03:28:18.245Z,97961.09
2023-04-19T03:29:21.190Z,97964.56
2023-04-19T03:30:24.161Z,97964.28
2023-04-19T03:31:27.206Z,97963.44
2023-04-19T03:32:32.280Z,97965.75
2023-04-19T03:33:35.157Z,97965.84
2023-04-19T03:34:38.029Z,97960.22
2023-04-19T03:35:40.826Z,97962.59
2023-04-19T03:36:43.854Z,97959.75
2023-04-19T03:37:47.184Z,97958.72
2023-04-19T03:38:50.162Z,97959.97
2023-04-19T03:39:53.181Z,97964.94
2023-04-19T03:40:57.516Z,97954.28
2023-04-19T03:42:01.573Z,97968.03
2023-04-19T03:43:05.005Z,97961.81
2023-04-19T03:44:07.833Z,97962.53
2023-04-19T03:45:11.096Z,97959.91
2023-04-19T03:46:13.994Z,97967.25
2023-04-19T03:47:16.880Z,97963.28
2023-04-19T03:48:19.787Z,97961.81
2023-04-19T03:49:22.671Z,97960.16
2023-04-19T03:50:25.787Z,97958.44
2023-04-19T03:51:29.253Z,97961.09
2023-04-19T03:52:32.793Z,97967.66
2023-04-19T03:53:36.725Z,97970.41
2023-04-19T03:54:39.598Z,97962.16
2023-04-19T03:55:42.401Z,97962.72
2023-04-19T03:56:45.485Z,97959.63
2023-04-19T03:57:48.959Z,97960.78
2023-04-19T03:58:52.300Z,97957.44
2023-04-19T03:59:55.184Z,97967.81
2023-04-19T04:00:59.897Z,97961.34
2023-04-19T04:02:03.028Z,97963.16
2023-04-19T04:03:06.185Z,97961.34
2023-04-19T04:04:09.492Z,97957.59
2023-04-19T04:05:12.669Z,97964.97
2023-04-19T04:06:16.189Z,97963.22
2023-04-19T04:07:19.015Z,97966.00
2023-04-19T04:08:21.896Z,97959.50
2023-04-19T04:09:25.253Z,97959.75
2023-04-19T04:10:28.416Z,97961.75
2023-04-19T04:11:31.434Z,97960.84
2023-04-19T04:12:34.751Z,97963.03
2023-04-19T04:13:37.779Z,97964.16
2023-04-19T04:14:40.736Z,97965.75
2023-04-19T04:15:43.560Z,97955.31
2023-04-19T04:16:46.649Z,97961.53
2023-04-19T04:17:50.780Z,97960.22
2023-04-19T04:18:53.748Z,97957.16
2023-04-19T04:19:56.524Z,97959.00
2023-04-19T04:20:59.421Z,97963.38
2023-04-19T04:22:02.589Z,97962.81
2023-04-19T04:23:05.593Z,97959.91
2023-04-19T04:24:08.440Z,97959.09
2023-04-19T04:25:11.372Z,97959.09
2023-04-19T04:26:14.198Z,97951.28
2023-04-19T04:27:21.163Z,97956.97
2023-04-19T04:28:24.177Z,97956.19
2023-04-19T04:29:27.433Z,97958.03
2023-04-19T04:30:30.795Z,97955.22
2023-04-19T04:31:36.206Z,97957.06
2023-04-19T04:32:41.388Z,97952.59
2023-04-19T04:33:46.095Z,97953.94
2023-04-19T04:34:49.200Z,97952.81
2023-04-19T04:35:52.323Z,97962.22
2023-04-19T04:36:55.250Z,97960.78
2023-04-19T04:37:59.814Z,97952.94
2023-04-19T04:39:03.079Z,97952.88
2023-04-19T04:40:08.070Z,97952.72
2023-04-19T04:41:12.288Z,97952.44
2023-04-19T04:42:15.682Z,97949.75
2023-04-19T04:43:18.434Z,97951.28
2023-04-19T04:44:22.981Z,97952.56
2023-04-19T04:45:25.978Z,97948.41
2023-04-19T04:46:28.904Z,97948.22
2023-04-19T04:47:33.022Z,97954.53
2023-04-19T04:48:35.965Z,97955.63
2023-04-19T04:49:38.852Z,97954.78
2023-04-19T04:50:41.726Z,97949.25
2023-04-19T04:51:44.591Z,97952.16
2023-04-19T04:52:47.439Z,97950.00
2023-04-19T04:53:50.242Z,97951.97
2023-04-19T04:54:53.050Z,97951.81
2023-04-19T04:55:55.914Z,97950.22
2023-04-19T04:56:59.517Z,97953.53
2023-04-19T04:58:02.655Z,97956.66
2023-04-19T04:59:05.925Z,97944.84
2023-04-19T05:00:10.118Z,97941.91
2023-04-19T05:01:13.467Z,97937.88
2023-04-19T05:02:17.207Z,97941.75
2023-04-19T05:03:20.490Z,97946.97
2023-04-19T05:04:23.449Z,97939.81
2023-04-19T05:05:26.450Z,97940.78
2023-04-19T05:06:29.369Z,97939.69
2023-04-19T05:07:32.299Z,97944.75
2023-04-19T05:08:35.058Z,97941.13
2023-04-19T05:09:38.049Z,97941.44
2023-04-19T05:10:40.920Z,97937.66
2023-04-19T05:11:43.759Z,97944.75
2023-04-19T05:12:46.616Z,97939.12
2023-04-19T05:13:49.373Z,97944.03
2023-04-19T05:14:52.279Z,97945.56
2023-04-19T05:15:55.213Z,97938.97
2023-04-19T05:16:58.046Z,97944.53
2023-04-19T05:18:01.028Z,97938.69
2023-04-19T05:19:03.976Z,97946.16
2023-04-19T05:20:07.545Z,97940.75
2023-04-19T05:21:10.771Z,97941.88
2023-04-19T05:22:13.590Z,97944.56
2023-04-19T05:23:17.146Z,97938.44
2023-04-19T05:24:20.015Z,97940.94
2023-04-19T05:25:22.982Z,97944.41
2023-04-19T05:26:25.951Z,97942.44
2023-04-19T05:27:28.852Z,97946.19
2023-04-19T05:28:31.813Z,97939.66
2023-04-19T05:29:34.595Z,97938.75
2023-04-19T05:30:37.776Z,97944.03
2023-04-19T05:31:40.683Z,97941.31
2023-04-19T05:32:43.592Z,97941.53
2023-04-19T05:33:46.719Z,97942.34
2023-04-19T05:34:49.880Z,97940.25
2023-04-19T05:35:52.760Z,97939.97
2023-04-19T05:36:56.058Z,97934.75
2023-04-19T05:37:59.020Z,97940.03
2023-04-19T05:39:01.930Z,97936.37
2023-04-19T05:40:06.121Z,97926.19
2023-04-19T05:41:11.850Z,97940.91
2023-04-19T05:42:14.814Z,97934.75
2023-04-19T05:43:17.596Z,97937.56
2023-04-19T05:44:20.737Z,97934.94
2023-04-19T05:45:23.699Z,97933.09
2023-04-19T05:46:27.404Z,97932.31
2023-04-19T05:47:30.441Z,97932.94
2023-04-19T05:48:33.569Z,97930.94
2023-04-19T05:49:36.491Z,97932.62
2023-04-19T05:50:39.815Z,97936.19
2023-04-19T05:51:42.768Z,97938.34
2023-04-19T05:52:45.852Z,97932.78
2023-04-19T05:53:48.740Z,97928.28
2023-04-19T05:54:51.793Z,97932.47
2023-04-19T05:55:54.746Z,97936.34
2023-04-19T05:56:58.041Z,97925.34
2023-04-19T05:58:01.207Z,97934.16
2023-04-19T05:59:04.266Z,97929.19
2023-04-19T06:00:10.072Z,97926.72
2023-04-19T06:01:12.972Z,97931.22
2023-04-19T06:02:16.497Z,97921.94
2023-04-19T06:03:20.197Z,97926.25
2023-04-19T06:04:23.703Z,97920.34
2023-04-19T06:05:27.366Z,97930.06
2023-04-19T06:06:30.362Z,97930.06
2023-04-19T06:07:35.901Z,97924.75
2023-04-19T06:08:42.730Z,97931.53
2023-04-19T06:09:45.552Z,97931.41
2023-04-19T06:10:54.862Z,97936.94
2023-04-19T06:12:02.225Z,97929.47
2023-04-19T06:13:05.971Z,97923.50
2023-04-19T06:14:08.948Z,97924.09
2023-04-19T06:15:12.183Z,97926.22
2023-04-19T06:16:15.125Z,97930.56
2023-04-19T06:17:23.705Z,97929.72
2023-04-19T06:18:26.884Z,97933.25
2023-04-19T06:19:29.891Z,97931.16
2023-04-19T06:20:32.818Z,97936.03
2023-04-19T06:21:36.624Z,97933.34
2023-04-19T06:22:46.294Z,97935.00
2023-04-19T06:23:49.182Z,97931.16
2023-04-19T06:24:52.021Z,97931.59
2023-04-19T06:25:54.804Z,97929.94
2023-04-19T06:26:58.132Z,97929.94
2023-04-19T06:28:01.605Z,97928.84
2023-04-19T06:29:04.518Z,97924.16
2023-04-19T06:30:08.472Z,97924.88
2023-04-19T06:31:12.486Z,97925.75
2023-04-19T06:32:16.217Z,97926.66
2023-04-19T06:33:19.128Z,97921.25
2023-04-19T06:34:21.828Z,97929.53
2023-04-19T06:35:25.677Z,97921.81
2023-04-19T06:36:28.609Z,97924.22
2023-04-19T06:37:34.184Z,97919.22
2023-04-19T06:38:38.711Z,97925.16
2023-04-19T06:39:41.562Z,97922.31
2023-04-19T06:40:44.564Z,97917.25
2023-04-19T06:41:47.840Z,97920.16
2023-04-19T06:42:50.780Z,97921.06
2023-04-19T06:43:53.748Z,97914.59
2023-04-19T06:44:57.683Z,97918.16
2023-04-19T06:46:01.361Z,97921.00
2023-04-19T06:47:04.978Z,97909.94
2023-04-19T06:48:07.880Z,97911.19
2023-04-19T06:49:10.866Z,97908.38
2023-04-19T06:50:13.900Z,97919.31
2023-04-19T06:51:16.737Z,97911.84
2023-04-19T06:52:19.842Z,97908.00
2023-04-19T06:53:23.072Z,97907.44
2023-04-19T06:54:25.866Z,97910.84
2023-04-19T06:55:28.746Z,97904.28
2023-04-19T06:56:47.683Z,97910.00
2023-04-19T06:57:50.680Z,97903.75
2023-04-19T06:58:53.517Z,97896.38
2023-04-19T06:59:57.281Z,97908.22
2023-04-19T07:01:01.653Z,97905.47
2023-04-19T07:02:04.579Z,97908.69
2023-04-19T07:03:07.492Z,97899.69
2023-04-19T07:04:10.929Z,97904.97
2023-04-19T07:05:13.938Z,97910.47
2023-04-19T07:06:16.894Z,97900.13
2023-04-19T07:07:19.729Z,97905.50
2023-04-19T07:08:26.307Z,97913.09
2023-04-19T07:09:32.875Z,97904.41
2023-04-19T07:10:35.797Z,97897.94
2023-04-19T07:11:38.640Z,97902.75
2023-04-19T07:12:42.316Z,97898.56
2023-04-19T07:13:45.483Z,97891.47
2023-04-19T07:14:48.408Z,97900.78
2023-04-19T07:15:51.213Z,97897.66
2023-04-19T07:16:54.193Z,97891.75
2023-04-19T07:17:57.122Z,97894.62
2023-04-19T07:19:00.272Z,97892.47
2023-04-19T07:20:05.321Z,97892.72
2023-04-19T07:21:08.545Z,97896.38
2023-04-19T07:22:13.657Z,97887.84
2023-04-19T07:23:19.657Z,97890.97
2023-04-19T07:24:22.784Z,97892.75
2023-04-19T07:25:25.852Z,97881.66
2023-04-19T07:26:28.686Z,97894.34
2023-04-19T07:27:31.828Z,97894.06
2023-04-19T07:28:34.712Z,97896.78
2023-04-19T07:29:37.951Z,97885.94
2023-04-19T07:30:41.379Z,97892.41
2023-04-19T07:31:44.911Z,97894.38
2023-04-19T07:32:48.412Z,97890.13
2023-04-19T07:33:52.012Z,97896.00
2023-04-19T07:34:54.767Z,97898.81
2023-04-19T07:35:57.661Z,97897.78
2023-04-19T07:37:00.673Z,97897.37
2023-04-19T07:38:03.503Z,97900.44
2023-04-19T07:39:06.379Z,97899.13
2023-04-19T07:40:10.966Z,97897.56
2023-04-19T07:41:13.944Z,97895.59
2023-04-19T07:42:16.979Z,97898.34
2023-04-19T07:43:20.146Z,97890.22
2023-04-19T07:44:23.111Z,97893.09
2023-04-19T07:45:26.126Z,97898.72
2023-04-19T07:46:29.161Z,97895.72
2023-04-19T07:47:32.366Z,97897.53
2023-04-19T07:48:35.312Z,97895.69
2023-04-19T07:49:38.657Z,97899.97
2023-04-19T07:50:41.563Z,97896.16
2023-04-19T07:51:44.497Z,97894.12
2023-04-19T07:52:47.456Z,97894.81
2023-04-19T07:53:50.812Z,97893.00
2023-04-19T07:54:53.716Z,97897.66
2023-04-19T07:55:56.536Z,97892.66
2023-04-19T07:56:59.469Z,97888.13
2023-04-19T07:58:02.639Z,97889.97
2023-04-19T07:59:08.882Z,97889.91
2023-04-19T08:00:13.329Z,97893.31
2023-04-19T08:01:16.490Z,97896.81
2023-04-19T08:02:19.625Z,97893.91
2023-04-19T08:03:22.660Z,97893.53
2023-04-19T08:04:25.914Z,97890.72
2023-04-19T08:05:29.285Z,97896.25
2023-04-19T08:06:32.717Z,97896.41
2023-04-19T08:07:35.729Z,97902.22
2023-04-19T08:08:38.957Z,97904.16
2023-04-19T08:09:41.966Z,97898.88
2023-04-19T08:10:44.973Z,97900.78
2023-04-19T08:11:47.838Z,97911.94
2023-04-19T08:14:09.366Z,97895.69
2023-04-19T08:17:14.628Z,97905.66
2023-04-19T08:17:54.793Z,97901.91
2023-04-19T08:18:57.616Z,97903.25
2023-04-19T08:20:00.564Z,97903.53
2023-04-19T08:21:03.589Z,97903.50
2023-04-19T08:22:06.287Z,97909.59
2023-04-19T08:23:20.572Z,97905.47
2023-04-19T08:24:25.378Z,97902.34
2023-04-19T08:25:28.930Z,97896.59
2023-04-19T08:26:31.797Z,97898.06
2023-04-19T08:27:34.761Z,97895.88
2023-04-19T08:28:37.774Z,97898.34
2023-04-19T08:29:40.919Z,97897.31
2023-04-19T08:30:43.900Z,97895.59
2023-04-19T08:31:47.291Z,97889.69
2023-04-19T08:32:51.249Z,97893.50
2023-04-19T08:33:54.166Z,97888.22
2023-04-19T08:34:57.617Z,97889.28
2023-04-19T08:36:00.548Z,97894.50
2023-04-19T08:37:05.055Z,97897.37
2023-04-19T08:38:08.842Z,97892.28
2023-04-19T08:39:28.917Z,97886.25
2023-04-19T08:40:36.130Z,97888.81
2023-04-19T08:41:40.331Z,97895.28
2023-04-19T08:42:46.215Z,97893.78
2023-04-19T08:43:52.184Z,97888.47
2023-04-19T08:45:25.370Z,97889.03
2023-04-19T08:46:23.743Z,97886.81
2023-04-19T08:47:32.156Z,97888.94
2023-04-19T08:48:37.349Z,97888.75
2023-04-19T08:49:43.269Z,97887.56
2023-04-19T08:51:03.392Z,97892.97
2023-04-19T08:52:09.570Z,97888.38
2023-04-19T08:54:20.126Z,97889.44
2023-04-19T08:55:23.298Z,97882.37
2023-04-19T08:56:35.286Z,97887.03
2023-04-19T08:57:39.087Z,97885.56
2023-04-19T08:58:57.971Z,97882.72
2023-04-19T09:00:09.165Z,97883.00
2023-04-19T09:01:22.603Z,97886.44
2023-04-19T09:02:50.910Z,97886.03
2023-04-19T09:04:02.631Z,97880.56
2023-04-19T09:05:14.857Z,97879.12
2023-04-19T09:06:18.222Z,97881.22
2023-04-19T09:07:26.396Z,97881.09
2023-04-19T09:08:31.376Z,97883.50
2023-04-19T09:09:45.679Z,97877.91
2023-04-19T09:10:56.798Z,97880.63
2023-04-19T09:11:59.759Z,97878.41
2023-04-19T09:13:06.005Z,97874.63
2023-04-19T09:14:10.420Z,97868.06
2023-04-19T09:15:13.535Z,97875.19
2023-04-19T09:16:26.279Z,97874.56
2023-04-19T09:17:30.187Z,97873.50
2023-04-19T09:18:35.975Z,97875.25
2023-04-19T09:19:48.164Z,97866.87
2023-04-19T09:20:57.366Z,97867.91
2023-04-19T09:22:13.046Z,97870.75
2023-04-19T09:23:17.626Z,97867.59
2023-04-19T09:24:20.580Z,97872.69
2023-04-19T09:26:33.310Z,97860.03
2023-04-19T09:27:37.329Z,97865.00
2023-04-19T09:28:40.129Z,97866.28
2023-04-19T09:29:53.408Z,97862.72
2023-04-19T09:31:05.727Z,97859.25
2023-04-19T09:32:13.904Z,97862.75
2023-04-19T09:33:41.961Z,97863.41
2023-04-19T09:34:59.271Z,97869.09
2023-04-19T09:36:02.769Z,97851.94
2023-04-19T09:37:21.523Z,97856.97
2023-04-19T09:38:49.220Z,97858.72
2023-04-19T09:39:52.993Z,97855.66
2023-04-19T09:41:09.128Z,97856.22
2023-04-19T09:42:12.147Z,97857.44
2023-04-19T09:43:53.358Z,97851.28
2023-04-19T09:46:06.074Z,97852.53
2023-04-19T09:47:26.276Z,97854.22
2023-04-19T09:48:30.037Z,97857.63
2023-04-19T09:49:46.034Z,97853.97
2023-04-19T09:50:58.949Z,97857.84
2023-04-19T09:52:06.552Z,97850.69
2023-04-19T09:53:11.073Z,97852.56
2023-04-19T09:54:15.914Z,97847.53
2023-04-19T09:56:26.264Z,97851.00
2023-04-19T09:57:29.305Z,97857.47
2023-04-19T09:59:38.618Z,97856.16
2023-04-19T10:00:50.044Z,97854.22
2023-04-19T10:01:57.007Z,97848.22
2023-04-19T10:03:00.897Z,97846.47
2023-04-19T10:04:20.571Z,97855.16
2023-04-19T10:05:31.137Z,97838.44
2023-04-19T10:06:58.173Z,97846.63
2023-04-19T10:08:02.949Z,97849.88
2023-04-19T10:09:06.797Z,97843.47
2023-04-19T10:10:19.507Z,97839.13
2023-04-19T10:11:27.173Z,97845.25
2023-04-19T10:13:39.883Z,97848.19
2023-04-19T10:14:43.442Z,97842.47
2023-04-19T10:15:52.490Z,97849.06
2023-04-19T10:16:58.833Z,97840.06
2023-04-19T10:18:03.084Z,97844.22
2023-04-19T10:19:11.636Z,97848.81
2023-04-19T10:20:24.055Z,97844.34
2023-04-19T10:21:29.072Z,97840.38
2023-04-19T10:22:32.690Z,97840.94
2023-04-19T10:23:37.640Z,97844.37
2023-04-19T10:24:41.872Z,97833.59
2023-04-19T10:25:48.029Z,97835.06
2023-04-19T10:27:14.004Z,97838.53
2023-04-19T10:28:17.551Z,97834.03
2023-04-19T10:29:55.103Z,97838.09
2023-04-19T10:31:01.926Z,97834.91
2023-04-19T10:32:06.445Z,97840.31
2023-04-19T10:33:09.566Z,97833.00
2023-04-19T10:34:13.139Z,97839.22
2023-04-19T10:35:24.997Z,97831.97
2023-04-19T10:36:29.139Z,97830.13
2023-04-19T10:37:32.248Z,97835.16
2023-04-19T10:38:55.944Z,97833.34
2023-04-19T10:39:58.730Z,97827.13
2023-04-19T10:41:02.353Z,97828.84
2023-04-19T10:42:05.178Z,97828.94
2023-04-19T10:43:11.198Z,97828.41
2023-04-19T10:44:13.976Z,97820.09
2023-04-19T10:45:34.688Z,97832.69
2023-04-19T10:46:42.330Z,97827.53
2023-04-19T10:47:45.765Z,97836.56
2023-04-19T10:48:54.756Z,97828.53
2023-04-19T10:49:57.965Z,97822.31
2023-04-19T10:51:28.292Z,97833.50
2023-04-19T10:52:31.179Z,97823.06
2023-04-19T10:53:49.009Z,97825.81
2023-04-19T10:54:56.793Z,97822.84
2023-04-19T10:55:59.519Z,97821.34
2023-04-19T10:57:05.805Z,97811.97
2023-04-19T10:58:09.511Z,97812.97
2023-04-19T10:59:21.590Z,97815.53
2023-04-19T11:00:27.075Z,97819.13
2023-04-19T11:01:46.096Z,97818.88
2023-04-19T11:02:49.239Z,97817.44
2023-04-19T11:03:52.924Z,97828.25
2023-04-19T11:04:55.962Z,97823.50
2023-04-19T11:06:23.242Z,97823.97
2023-04-19T11:07:26.232Z,97821.00
2023-04-19T11:08:29.945Z,97822.06
2023-04-19T11:09:39.181Z,97818.50
2023-04-19T11:10:42.294Z,97818.75
2023-04-19T11:11:45.373Z,97825.75
2023-04-19T11:12:48.376Z,97813.56
2023-04-19T11:13:51.779Z,97813.09
2023-04-19T11:15:00.074Z,97809.31
2023-04-19T11:16:08.683Z,97808.09
2023-04-19T11:17:19.453Z,97810.00
2023-04-19T11:18:22.705Z,97809.62
2023-04-19T11:19:26.139Z,97808.00
2023-04-19T11:20:29.274Z,97818.41
2023-04-19T11:21:32.515Z,97813.34
2023-04-19T11:22:39.730Z,97817.88
2023-04-19T11:23:42.654Z,97815.19
2023-04-19T11:24:47.497Z,97819.84
2023-04-19T11:25:52.849Z,97823.00
2023-04-19T11:26:57.204Z,97816.88
2023-04-19T11:28:00.857Z,97813.66
2023-04-19T11:29:04.754Z,97822.31
2023-04-19T11:30:10.565Z,97817.16
2023-04-19T11:31:13.777Z,97824.88
2023-04-19T11:32:16.869Z,97830.09
2023-04-19T11:33:25.955Z,97828.97
2023-04-19T11:34:28.764Z,97832.47
2023-04-19T11:35:31.771Z,97830.19
2023-04-19T11:36:37.150Z,97824.81
2023-04-19T11:37:40.161Z,97828.16
2023-04-19T11:38:48.323Z,97829.37
2023-04-19T11:39:52.108Z,97822.41
2023-04-19T11:41:02.653Z,97825.59
2023-04-19T11:42:05.655Z,97821.56
2023-04-19T11:43:08.576Z,97820.13
2023-04-19T11:44:21.247Z,97826.44
2023-04-19T11:45:32.073Z,97821.69
2023-04-19T11:46:38.194Z,97824.75
2023-04-19T11:47:49.270Z,97829.34
2023-04-19T11:48:53.643Z,97828.16
2023-04-19T11:49:57.679Z,97823.44
2023-04-19T11:51:01.722Z,97815.66
2023-04-19T11:52:06.803Z,97817.34
2023-04-19T11:53:12.494Z,97822.41
2023-04-19T11:54:17.220Z,97825.28
2023-04-19T11:55:20.730Z,97812.69
2023-04-19T11:56:26.706Z,97816.53
2023-04-19T11:57:31.435Z,97825.00
2023-04-19T11:58:37.718Z,97822.41
2023-04-19T12:00:23.428Z,97813.09
2023-04-19T12:01:26.683Z,97812.00
2023-04-19T12:02:31.083Z,97811.75
2023-04-19T12:03:36.075Z,97817.12
2023-04-19T12:04:39.961Z,97815.16
2023-04-19T12:06:13.751Z,97820.75
2023-04-19T12:07:16.800Z,97811.66
2023-04-19T12:08:32.186Z,97820.34
2023-04-19T12:09:37.144Z,97820.06
2023-04-19T12:10:39.956Z,97807.00
2023-04-19T12:11:45.023Z,97807.59
2023-04-19T12:12:48.021Z,97808.84
2023-04-19T12:14:09.386Z,97814.47
2023-04-19T12:15:12.270Z,97815.44
2023-04-19T12:16:15.149Z,97809.44
2023-04-19T12:17:18.188Z,97809.81
2023-04-19T12:18:21.567Z,97818.75
2023-04-19T12:19:24.597Z,97805.00
2023-04-19T12:20:39.511Z,97807.31
2023-04-19T12:21:42.474Z,97809.19
2023-04-19T12:22:45.290Z,97807.91
2023-04-19T12:23:48.113Z,97807.91
2023-04-19T12:24:54.480Z,97799.69
2023-04-19T12:25:57.378Z,97799.56
2023-04-19T12:27:00.676Z,97796.56
2023-04-19T12:28:05.693Z,97806.00
2023-04-19T12:29:08.821Z,97795.97
2023-04-19T12:30:11.889Z,97798.13
2023-04-19T12:31:16.757Z,97794.66
2023-04-19T12:32:19.657Z,97794.19
2023-04-19T12:33:24.077Z,97791.66
2023-04-19T12:34:26.941Z,97792.63
2023-04-19T12:35:29.957Z,97797.87
2023-04-19T12:36:32.770Z,97790.47
2023-04-19T12:37:35.605Z,97797.44
2023-04-19T12:38:38.491Z,97789.66
2023-04-19T12:39:41.353Z,97791.81
2023-04-19T12:40:44.295Z,97789.31
2023-04-19T12:41:50.039Z,97794.00
2023-04-19T12:42:54.556Z,97791.75
2023-04-19T12:43:58.258Z,97788.19
2023-04-19T12:45:01.569Z,97792.41
2023-04-19T12:46:05.984Z,97792.47
2023-04-19T12:47:08.976Z,97790.31
2023-04-19T12:48:12.081Z,97790.41
2023-04-19T12:49:15.140Z,97775.78
2023-04-19T12:50:18.192Z,97782.00